sensor_id;sensor_type;location;lat;lon;timestamp;pressure;altitude;pressure_sealevel;temperature;humidity
6136;BME280;24008;42.664;23.372;2023-04-30T00:02:15;94457.19;;;9.88;82.90
6136;BME280;24008;42.664;23.372;2023-04-30T00:04:42;94461.47;;;9.88;82.90
6136;BME280;24008;42.664;23.372;2023-04-30T00:07:10;94458.13;;;9.87;83.18
6136;BME280;24008;42.664;23.372;2023-04-30T00:09:36;94422.13;;;9.63;83.24
6136;BME280;24008;42.664;23.372;2023-04-30T00:12:04;94457.72;;;9.82;83.18
6136;BME280;24008;42.664;23.372;2023-04-30T00:14:30;94469.69;;;9.82;83.08
6136;BME280;24008;42.664;23.372;2023-04-30T00:16:57;94453.56;;;9.81;82.66
6136;BME280;24008;42.664;23.372;2023-04-30T00:19:24;94452.28;;;9.77;82.20
6136;BME280;24008;42.664;23.372;2023-04-30T00:21:51;94449.31;;;9.72;82.42
6136;BME280;24008;42.664;23.372;2023-04-30T00:24:19;94419.00;;;9.42;81.90
6136;BME280;24008;42.664;23.372;2023-04-30T00:26:45;94339.91;;;8.87;81.79
6136;BME280;24008;42.664;23.372;2023-04-30T00:29:12;94426.19;;;9.28;81.84
6136;BME280;24008;42.664;23.372;2023-04-30T00:31:39;94454.06;;;9.39;82.66
6136;BME280;24008;42.664;23.372;2023-04-30T00:34:06;94424.06;;;9.14;82.40
6136;BME280;24008;42.664;23.372;2023-04-30T00:36:32;94460.53;;;9.24;82.31
6136;BME280;24008;42.664;23.372;2023-04-30T00:38:59;94464.19;;;9.12;82.46
6136;BME280;24008;42.664;23.372;2023-04-30T00:41:28;94311.66;;;8.05;82.33
6136;BME280;24008;42.664;23.372;2023-04-30T00:43:56;94429.25;;;8.85;82.70
6136;BME280;24008;42.664;23.372;2023-04-30T00:46:23;94451.63;;;9.01;82.95
6136;BME280;24008;42.664;23.372;2023-04-30T00:48:49;94324.78;;;8.19;83.02
6136;BME280;24008;42.664;23.372;2023-04-30T00:51:16;94342.19;;;8.34;83.26
6136;BME280;24008;42.664;23.372;2023-04-30T00:53:43;94457.09;;;9.06;83.40
6136;BME280;24008;42.664;23.372;2023-04-30T00:56:11;94454.28;;;9.09;83.78
6136;BME280;24008;42.664;23.372;2023-04-30T00:58:41;94406.47;;;8.74;84.63
6136;BME280;24008;42.664;23.372;2023-04-30T01:01:08;94452.53;;;9.10;83.90
6136;BME280;24008;42.664;23.372;2023-04-30T01:03:35;94455.22;;;9.08;84.46
6136;BME280;24008;42.664;23.372;2023-04-30T01:06:02;94452.78;;;9.07;84.21
6136;BME280;24008;42.664;23.372;2023-04-30T01:08:29;94393.75;;;8.64;84.32
6136;BME280;24008;42.664;23.372;2023-04-30T01:11:06;94446.66;;;8.99;84.61
6136;BME280;24008;42.664;23.372;2023-04-30T01:13:40;94444.25;;;8.98;84.92
6136;BME280;24008;42.664;23.372;2023-04-30T01:16:15;94450.28;;;8.97;84.75
6136;BME280;24008;42.664;23.372;2023-04-30T01:18:47;94443.19;;;8.91;84.83
6136;BME280;24008;42.664;23.372;2023-04-30T01:21:17;94418.97;;;8.68;85.64
6136;BME280;24008;42.664;23.372;2023-04-30T01:24:05;94417.34;;;8.66;85.43
6136;BME280;24008;42.664;23.372;2023-04-30T01:26:51;94257.84;;;7.61;86.24
6136;BME280;24008;42.664;23.372;2023-04-30T01:29:21;94390.28;;;8.46;86.46
6136;BME280;24008;42.664;23.372;2023-04-30T01:31:48;94406.50;;;8.64;86.86
6136;BME280;24008;42.664;23.372;2023-04-30T01:34:15;94385.59;;;8.51;86.77
6136;BME280;24008;42.664;23.372;2023-04-30T01:36:51;94440.50;;;8.83;86.03
6136;BME280;24008;42.664;23.372;2023-04-30T01:39:32;94448.31;;;8.81;87.28
6136;BME280;24008;42.664;23.372;2023-04-30T01:42:07;94413.34;;;8.54;86.70
6136;BME280;24008;42.664;23.372;2023-04-30T01:44:48;94395.00;;;8.41;87.54
6136;BME280;24008;42.664;23.372;2023-04-30T01:47:26;94449.09;;;8.72;86.11
6136;BME280;24008;42.664;23.372;2023-04-30T01:50:02;94451.53;;;8.74;86.90
6136;BME280;24008;42.664;23.372;2023-04-30T01:52:38;94448.59;;;8.69;87.34
6136;BME280;24008;42.664;23.372;2023-04-30T01:55:07;94400.47;;;8.27;86.19
6136;BME280;24008;42.664;23.372;2023-04-30T01:57:38;94449.81;;;8.55;86.95
6136;BME280;24008;42.664;23.372;2023-04-30T02:00:09;94442.31;;;8.44;87.02
6136;BME280;24008;42.664;23.372;2023-04-30T02:02:36;94407.06;;;8.20;87.29
6136;BME280;24008;42.664;23.372;2023-04-30T02:05:03;94445.94;;;8.41;87.79
6136;BME280;24008;42.664;23.372;2023-04-30T02:07:36;94443.50;;;8.40;87.42
6136;BME280;24008;42.664;23.372;2023-04-30T02:10:06;94445.13;;;8.41;87.77
6136;BME280;24008;42.664;23.372;2023-04-30T02:12:33;94451.28;;;8.38;88.14
6136;BME280;24008;42.664;23.372;2023-04-30T02:15:00;94444.84;;;8.34;87.77
6136;BME280;24008;42.664;23.372;2023-04-30T02:17:29;94446.59;;;8.34;88.56
6136;BME280;24008;42.664;23.372;2023-04-30T02:19:56;94278.56;;;7.28;87.93
6136;BME280;24008;42.664;23.372;2023-04-30T02:22:23;94444.03;;;8.34;88.23
6136;BME280;24008;42.664;23.372;2023-04-30T02:24:50;94444.44;;;8.29;88.58
6136;BME280;24008;42.664;23.372;2023-04-30T02:27:20;94444.31;;;8.21;88.53
6136;BME280;24008;42.664;23.372;2023-04-30T02:29:47;94409.94;;;7.86;88.62
6136;BME280;24008;42.664;23.372;2023-04-30T02:32:14;94441.22;;;8.08;88.69
6136;BME280;24008;42.664;23.372;2023-04-30T02:34:42;94444.00;;;8.05;88.98
6136;BME280;24008;42.664;23.372;2023-04-30T02:37:09;94381.28;;;7.65;89.11
6136;BME280;24008;42.664;23.372;2023-04-30T02:39:36;94448.41;;;8.03;88.85
6136;BME280;24008;42.664;23.372;2023-04-30T02:42:02;94444.25;;;8.02;88.64
6136;BME280;24008;42.664;23.372;2023-04-30T02:44:31;94438.50;;;8.00;89.36
6136;BME280;24008;42.664;23.372;2023-04-30T02:46:58;94444.25;;;8.02;88.71
6136;BME280;24008;42.664;23.372;2023-04-30T02:49:24;94377.53;;;7.59;88.89
6136;BME280;24008;42.664;23.372;2023-04-30T02:51:53;94445.88;;;8.03;88.97
6136;BME280;24008;42.664;23.372;2023-04-30T02:54:19;94335.97;;;7.30;88.95
6136;BME280;24008;42.664;23.372;2023-04-30T02:56:46;94306.50;;;7.08;89.46
6136;BME280;24008;42.664;23.372;2023-04-30T02:59:13;94321.09;;;7.26;89.54
6136;BME280;24008;42.664;23.372;2023-04-30T03:01:40;94450.97;;;8.03;90.03
6136;BME280;24008;42.664;23.372;2023-04-30T03:04:07;94458.47;;;8.04;89.87
6136;BME280;24008;42.664;23.372;2023-04-30T03:06:34;94460.63;;;8.09;90.40
6136;BME280;24008;42.664;23.372;2023-04-30T03:09:02;94462.25;;;8.19;90.06
6136;BME280;24008;42.664;23.372;2023-04-30T03:11:29;94462.50;;;8.26;89.99
6136;BME280;24008;42.664;23.372;2023-04-30T03:13:56;94408.75;;;7.90;89.66
6136;BME280;24008;42.664;23.372;2023-04-30T03:16:22;94470.81;;;8.28;89.72
6136;BME280;24008;42.664;23.372;2023-04-30T03:18:49;94467.75;;;8.34;89.95
6136;BME280;24008;42.664;23.372;2023-04-30T03:21:16;94339.91;;;7.63;90.30
6136;BME280;24008;42.664;23.372;2023-04-30T03:23:43;94471.53;;;8.49;90.20
6136;BME280;24008;42.664;23.372;2023-04-30T03:26:12;94411.34;;;8.19;89.70
6136;BME280;24008;42.664;23.372;2023-04-30T03:28:38;94449.78;;;8.45;89.71
6136;BME280;24008;42.664;23.372;2023-04-30T03:31:05;94306.59;;;7.56;89.29
6136;BME280;24008;42.664;23.372;2023-04-30T03:33:32;94464.41;;;8.62;89.15
6136;BME280;24008;42.664;23.372;2023-04-30T03:35:59;94463.47;;;8.63;89.68
6136;BME280;24008;42.664;23.372;2023-04-30T03:38:25;94399.53;;;8.18;89.39
6136;BME280;24008;42.664;23.372;2023-04-30T03:40:52;94476.34;;;8.72;89.53
6136;BME280;24008;42.664;23.372;2023-04-30T03:43:20;94474.88;;;8.79;90.05
6136;BME280;24008;42.664;23.372;2023-04-30T03:45:47;94483.81;;;8.83;89.41
6136;BME280;24008;42.664;23.372;2023-04-30T03:48:14;94484.50;;;8.85;89.42
6136;BME280;24008;42.664;23.372;2023-04-30T03:50:41;94481.28;;;8.83;89.44
6136;BME280;24008;42.664;23.372;2023-04-30T03:53:07;94483.69;;;8.84;88.93
6136;BME280;24008;42.664;23.372;2023-04-30T03:55:34;94490.13;;;8.88;89.44
6136;BME280;24008;42.664;23.372;2023-04-30T03:58:01;94368.44;;;8.15;89.35
6136;BME280;24008;42.664;23.372;2023-04-30T04:00:29;94451.69;;;8.62;89.63
6136;BME280;24008;42.664;23.372;2023-04-30T04:02:57;94493.59;;;8.97;88.54
6136;BME280;24008;42.664;23.372;2023-04-30T04:05:24;94459.31;;;8.72;88.13
6136;BME280;24008;42.664;23.372;2023-04-30T04:07:51;94466.81;;;8.74;88.17
6136;BME280;24008;42.664;23.372;2023-04-30T04:10:18;94500.31;;;8.98;88.46
6136;BME280;24008;42.664;23.372;2023-04-30T04:12:45;94473.81;;;8.81;87.73
6136;BME280;24008;42.664;23.372;2023-04-30T04:15:11;94505.25;;;9.09;87.42
6136;BME280;24008;42.664;23.372;2023-04-30T04:17:40;94466.94;;;8.91;86.39
6136;BME280;24008;42.664;23.372;2023-04-30T04:20:07;94463.28;;;8.94;84.86
6136;BME280;24008;42.664;23.372;2023-04-30T04:22:34;94491.28;;;9.23;85.27
6136;BME280;24008;42.664;23.372;2023-04-30T04:25:01;94503.59;;;9.37;84.10
6136;BME280;24008;42.664;23.372;2023-04-30T04:27:28;94448.81;;;9.04;83.59
6136;BME280;24008;42.664;23.372;2023-04-30T04:29:55;94507.03;;;9.46;86.30
6136;BME280;24008;42.664;23.372;2023-04-30T04:32:22;94507.31;;;9.52;85.32
6136;BME280;24008;42.664;23.372;2023-04-30T04:34:50;94510.09;;;9.59;84.65
6136;BME280;24008;42.664;23.372;2023-04-30T04:37:18;94427.56;;;9.13;84.96
6136;BME280;24008;42.664;23.372;2023-04-30T04:39:45;94517.56;;;9.70;85.60
6136;BME280;24008;42.664;23.372;2023-04-30T04:42:13;94464.78;;;9.33;84.78
6136;BME280;24008;42.664;23.372;2023-04-30T04:44:41;94458.31;;;9.49;84.11
6136;BME280;24008;42.664;23.372;2023-04-30T04:47:08;94513.69;;;9.93;82.41
6136;BME280;24008;42.664;23.372;2023-04-30T04:49:36;94441.78;;;9.53;80.63
6136;BME280;24008;42.664;23.372;2023-04-30T04:52:05;94519.34;;;10.24;80.01
6136;BME280;24008;42.664;23.372;2023-04-30T04:54:32;94518.41;;;10.43;81.29
6136;BME280;24008;42.664;23.372;2023-04-30T04:56:59;94492.72;;;10.17;82.55
6136;BME280;24008;42.664;23.372;2023-04-30T04:59:25;94532.13;;;10.42;81.29
6136;BME280;24008;42.664;23.372;2023-04-30T05:01:52;94533.31;;;10.48;80.36
6136;BME280;24008;42.664;23.372;2023-04-30T05:04:19;94522.28;;;10.47;80.05
6136;BME280;24008;42.664;23.372;2023-04-30T05:06:45;94541.66;;;10.50;79.64
6136;BME280;24008;42.664;23.372;2023-04-30T05:09:14;94534.94;;;10.49;79.09
6136;BME280;24008;42.664;23.372;2023-04-30T05:11:40;94540.25;;;10.55;79.41
6136;BME280;24008;42.664;23.372;2023-04-30T05:14:08;94541.56;;;10.59;81.00
6136;BME280;24008;42.664;23.372;2023-04-30T05:16:35;94528.81;;;10.59;80.69
6136;BME280;24008;42.664;23.372;2023-04-30T05:19:02;94428.50;;;9.94;79.84
6136;BME280;24008;42.664;23.372;2023-04-30T05:21:29;94538.34;;;10.57;80.09
6136;BME280;24008;42.664;23.372;2023-04-30T05:23:56;94483.13;;;10.29;81.21
6136;BME280;24008;42.664;23.372;2023-04-30T05:26:24;94442.41;;;10.09;81.54
6136;BME280;24008;42.664;23.372;2023-04-30T05:28:51;94532.28;;;10.76;80.90
6136;BME280;24008;42.664;23.372;2023-04-30T05:31:18;94528.72;;;10.87;80.56
6136;BME280;24008;42.664;23.372;2023-04-30T05:33:45;94216.44;;;8.99;79.50
6136;BME280;24008;42.664;23.372;2023-04-30T05:36:12;94528.31;;;10.99;80.06
6136;BME280;24008;42.664;23.372;2023-04-30T05:38:39;94495.13;;;10.81;77.99
6136;BME280;24008;42.664;23.372;2023-04-30T05:41:06;94536.66;;;11.01;76.07
6136;BME280;24008;42.664;23.372;2023-04-30T05:43:34;94510.09;;;10.76;76.36
6136;BME280;24008;42.664;23.372;2023-04-30T05:46:01;94447.25;;;10.48;75.40
6136;BME280;24008;42.664;23.372;2023-04-30T05:48:28;94535.63;;;11.12;75.17
6136;BME280;24008;42.664;23.372;2023-04-30T05:50:55;94435.72;;;10.62;75.07
6136;BME280;24008;42.664;23.372;2023-04-30T05:53:22;94426.81;;;10.48;75.02
6136;BME280;24008;42.664;23.372;2023-04-30T05:55:49;94519.88;;;11.25;75.18
6136;BME280;24008;42.664;23.372;2023-04-30T05:58:16;94444.09;;;10.72;74.62
6136;BME280;24008;42.664;23.372;2023-04-30T06:00:47;94501.97;;;11.25;74.50
6136;BME280;24008;42.664;23.372;2023-04-30T06:03:14;94503.47;;;11.35;75.57
6136;BME280;24008;42.664;23.372;2023-04-30T06:05:41;94541.16;;;11.51;74.82
6136;BME280;24008;42.664;23.372;2023-04-30T06:08:08;94441.56;;;10.80;74.80
6136;BME280;24008;42.664;23.372;2023-04-30T06:10:35;94363.19;;;10.37;74.84
6136;BME280;24008;42.664;23.372;2023-04-30T06:13:02;94482.47;;;11.24;74.97
6136;BME280;24008;42.664;23.372;2023-04-30T06:15:29;94469.66;;;11.24;74.70
6136;BME280;24008;42.664;23.372;2023-04-30T06:17:57;94535.38;;;11.75;74.97
6136;BME280;24008;42.664;23.372;2023-04-30T06:20:24;94542.81;;;11.86;74.32
6136;BME280;24008;42.664;23.372;2023-04-30T06:22:51;94348.88;;;10.52;73.94
6136;BME280;24008;42.664;23.372;2023-04-30T06:25:18;94548.19;;;12.01;73.95
6136;BME280;24008;42.664;23.372;2023-04-30T06:27:46;94490.94;;;11.76;73.26
6136;BME280;24008;42.664;23.372;2023-04-30T06:30:12;94551.25;;;12.12;73.09
6136;BME280;24008;42.664;23.372;2023-04-30T06:32:39;94296.66;;;10.80;72.55
6136;BME280;24008;42.664;23.372;2023-04-30T06:35:11;94492.34;;;12.12;72.02
6136;BME280;24008;42.664;23.372;2023-04-30T06:37:46;94131.00;;;10.00;71.25
6136;BME280;24008;42.664;23.372;2023-04-30T06:40:13;94539.53;;;12.68;71.31
6136;BME280;24008;42.664;23.372;2023-04-30T06:42:40;94529.13;;;12.61;70.95
6136;BME280;24008;42.664;23.372;2023-04-30T06:45:07;94531.88;;;12.76;70.14
6136;BME280;24008;42.664;23.372;2023-04-30T06:47:34;94512.50;;;12.90;70.24
6136;BME280;24008;42.664;23.372;2023-04-30T06:50:03;94516.84;;;13.22;69.29
6136;BME280;24008;42.664;23.372;2023-04-30T06:52:31;94524.72;;;13.92;67.39
6136;BME280;24008;42.664;23.372;2023-04-30T06:54:58;94555.56;;;14.93;63.85
6136;BME280;24008;42.664;23.372;2023-04-30T06:57:25;94559.84;;;15.00;61.23
6136;BME280;24008;42.664;23.372;2023-04-30T06:59:52;94491.28;;;14.62;61.31
6136;BME280;24008;42.664;23.372;2023-04-30T07:02:19;94557.75;;;15.04;60.45
6136;BME280;24008;42.664;23.372;2023-04-30T07:04:46;94483.38;;;14.49;60.30
6136;BME280;24008;42.664;23.372;2023-04-30T07:07:13;94553.63;;;15.18;59.76
6136;BME280;24008;42.664;23.372;2023-04-30T07:09:41;94477.69;;;14.76;60.77
6136;BME280;24008;42.664;23.372;2023-04-30T07:12:08;94554.66;;;15.08;60.55
6136;BME280;24008;42.664;23.372;2023-04-30T07:14:36;94551.50;;;14.98;61.15
6136;BME280;24008;42.664;23.372;2023-04-30T07:17:02;94474.38;;;14.45;60.27
6136;BME280;24008;42.664;23.372;2023-04-30T07:19:29;94530.59;;;14.78;60.38
6136;BME280;24008;42.664;23.372;2023-04-30T07:21:57;94561.06;;;14.90;60.21
6136;BME280;24008;42.664;23.372;2023-04-30T07:24:23;94551.56;;;14.90;61.16
6136;BME280;24008;42.664;23.372;2023-04-30T07:26:51;94541.03;;;14.77;61.86
6136;BME280;24008;42.664;23.372;2023-04-30T07:29:18;94554.19;;;14.82;61.34
6136;BME280;24008;42.664;23.372;2023-04-30T07:31:45;94553.50;;;14.88;59.92
6136;BME280;24008;42.664;23.372;2023-04-30T07:34:12;94553.63;;;14.95;59.51
6136;BME280;24008;42.664;23.372;2023-04-30T07:36:39;94557.81;;;14.96;59.44
6136;BME280;24008;42.664;23.372;2023-04-30T07:39:05;94548.13;;;14.75;59.65
6136;BME280;24008;42.664;23.372;2023-04-30T07:41:32;94542.94;;;14.52;60.88
6136;BME280;24008;42.664;23.372;2023-04-30T07:44:01;94567.22;;;14.58;61.21
6136;BME280;24008;42.664;23.372;2023-04-30T07:46:27;94384.31;;;13.29;60.85
6136;BME280;24008;42.664;23.372;2023-04-30T07:48:54;94549.91;;;14.44;60.82
6136;BME280;24008;42.664;23.372;2023-04-30T07:51:21;94563.84;;;14.57;61.24
6136;BME280;24008;42.664;23.372;2023-04-30T07:53:48;94565.38;;;14.66;61.41
6136;BME280;24008;42.664;23.372;2023-04-30T07:56:21;94568.69;;;14.75;60.94
6136;BME280;24008;42.664;23.372;2023-04-30T07:58:47;94507.13;;;14.51;60.83
6136;BME280;24008;42.664;23.372;2023-04-30T08:01:15;94564.34;;;15.06;60.25
6136;BME280;24008;42.664;23.372;2023-04-30T08:03:42;94527.41;;;15.14;60.48
6136;BME280;24008;42.664;23.372;2023-04-30T08:06:09;94424.16;;;14.94;59.85
6136;BME280;24008;42.664;23.372;2023-04-30T08:08:35;94563.88;;;16.51;58.09
6136;BME280;24008;42.664;23.372;2023-04-30T08:11:04;94535.75;;;16.92;55.58
6136;BME280;24008;42.664;23.372;2023-04-30T08:13:30;94556.19;;;17.58;53.64
6136;BME280;24008;42.664;23.372;2023-04-30T08:15:57;94551.59;;;17.81;51.98
6136;BME280;24008;42.664;23.372;2023-04-30T08:18:25;94517.53;;;17.71;51.58
6136;BME280;24008;42.664;23.372;2023-04-30T08:20:52;94565.75;;;18.20;51.19
6136;BME280;24008;42.664;23.372;2023-04-30T08:23:19;94445.34;;;17.70;49.71
6136;BME280;24008;42.664;23.372;2023-04-30T08:25:46;94431.75;;;17.95;48.40
6136;BME280;24008;42.664;23.372;2023-04-30T08:28:12;94558.47;;;18.91;47.38
6136;BME280;24008;42.664;23.372;2023-04-30T08:30:39;94564.81;;;18.68;47.43
6136;BME280;24008;42.664;23.372;2023-04-30T08:33:06;94512.59;;;18.11;48.22
6136;BME280;24008;42.664;23.372;2023-04-30T08:35:34;94568.69;;;18.10;48.58
6136;BME280;24008;42.664;23.372;2023-04-30T08:38:01;94539.97;;;17.43;49.12
6136;BME280;24008;42.664;23.372;2023-04-30T08:40:29;94464.72;;;16.61;50.09
6136;BME280;24008;42.664;23.372;2023-04-30T08:43:04;94562.06;;;17.03;50.97
6136;BME280;24008;42.664;23.372;2023-04-30T08:45:32;94562.59;;;16.77;51.88
6136;BME280;24008;42.664;23.372;2023-04-30T08:48:00;94533.28;;;16.48;52.58
6136;BME280;24008;42.664;23.372;2023-04-30T08:50:27;94470.06;;;16.02;53.86
6136;BME280;24008;42.664;23.372;2023-04-30T08:52:56;94530.56;;;16.56;53.20
6136;BME280;24008;42.664;23.372;2023-04-30T08:55:25;94550.88;;;16.96;53.28
6136;BME280;24008;42.664;23.372;2023-04-30T08:57:52;94559.50;;;17.24;52.20
6136;BME280;24008;42.664;23.372;2023-04-30T09:00:19;94548.69;;;17.42;50.12
6136;BME280;24008;42.664;23.372;2023-04-30T09:02:47;94517.66;;;17.63;49.99
6136;BME280;24008;42.664;23.372;2023-04-30T09:05:14;94547.13;;;18.92;49.01
6136;BME280;24008;42.664;23.372;2023-04-30T09:07:43;94440.69;;;19.79;44.38
6136;BME280;24008;42.664;23.372;2023-04-30T09:10:17;94532.78;;;21.85;42.36
6136;BME280;24008;42.664;23.372;2023-04-30T09:12:44;94489.50;;;22.75;39.16
6136;BME280;24008;42.664;23.372;2023-04-30T09:15:23;94480.16;;;23.39;38.77
6136;BME280;24008;42.664;23.372;2023-04-30T09:18:04;94514.19;;;24.37;36.21
6136;BME280;24008;42.664;23.372;2023-04-30T09:20:31;94481.34;;;24.70;34.13
6136;BME280;24008;42.664;23.372;2023-04-30T09:23:05;94512.06;;;25.36;33.88
6136;BME280;24008;42.664;23.372;2023-04-30T09:25:38;94507.09;;;25.68;33.28
6136;BME280;24008;42.664;23.372;2023-04-30T09:28:07;94511.69;;;25.61;31.91
6136;BME280;24008;42.664;23.372;2023-04-30T09:30:34;94507.16;;;25.73;32.47
6136;BME280;24008;42.664;23.372;2023-04-30T09:33:02;94494.16;;;25.78;32.63
6136;BME280;24008;42.664;23.372;2023-04-30T09:35:29;94440.63;;;25.02;32.82
6136;BME280;24008;42.664;23.372;2023-04-30T09:37:58;94500.94;;;25.12;32.88
6136;BME280;24008;42.664;23.372;2023-04-30T09:40:34;94507.34;;;24.48;33.62
6136;BME280;24008;42.664;23.372;2023-04-30T09:43:02;94480.41;;;23.84;35.05
6136;BME280;24008;42.664;23.372;2023-04-30T09:45:40;94474.97;;;23.51;33.50
6136;BME280;24008;42.664;23.372;2023-04-30T09:48:08;94407.50;;;23.54;33.57
6136;BME280;24008;42.664;23.372;2023-04-30T09:50:37;94476.47;;;24.33;32.46
6136;BME280;24008;42.664;23.372;2023-04-30T09:53:05;94479.16;;;23.63;33.44
6136;BME280;24008;42.664;23.372;2023-04-30T09:55:33;94488.63;;;23.34;34.24
6136;BME280;24008;42.664;23.372;2023-04-30T09:58:04;94416.97;;;22.31;35.42
6136;BME280;24008;42.664;23.372;2023-04-30T10:00:33;94472.38;;;22.19;35.76
6136;BME280;24008;42.664;23.372;2023-04-30T10:03:05;94417.78;;;21.58;36.52
6136;BME280;24008;42.664;23.372;2023-04-30T10:05:36;94493.69;;;21.48;37.93
6136;BME280;24008;42.664;23.372;2023-04-30T10:08:06;94484.75;;;21.13;37.27
6136;BME280;24008;42.664;23.372;2023-04-30T10:10:37;94483.63;;;21.34;37.81
6136;BME280;24008;42.664;23.372;2023-04-30T10:13:12;94377.63;;;21.11;36.51
6136;BME280;24008;42.664;23.372;2023-04-30T10:15:44;94467.38;;;22.96;35.37
6136;BME280;24008;42.664;23.372;2023-04-30T10:18:17;94472.38;;;23.62;34.80
6136;BME280;24008;42.664;23.372;2023-04-30T10:20:46;94375.84;;;23.27;34.90
6136;BME280;24008;42.664;23.372;2023-04-30T10:23:14;94394.69;;;22.46;34.66
6136;BME280;24008;42.664;23.372;2023-04-30T10:25:42;94471.34;;;22.39;34.90
6136;BME280;24008;42.664;23.372;2023-04-30T10:28:11;94375.44;;;21.08;36.01
6136;BME280;24008;42.664;23.372;2023-04-30T10:30:40;94495.91;;;20.89;38.99
6136;BME280;24008;42.664;23.372;2023-04-30T10:33:12;94349.81;;;18.03;41.59
6136;BME280;24008;42.664;23.372;2023-04-30T10:35:46;94511.31;;;18.41;43.97
6136;BME280;24008;42.664;23.372;2023-04-30T10:38:27;94365.25;;;16.79;46.84
6136;BME280;24008;42.664;23.372;2023-04-30T10:40:55;94522.53;;;17.73;48.60
6136;BME280;24008;42.664;23.372;2023-04-30T10:43:24;94489.28;;;16.92;52.53
6136;BME280;24008;42.664;23.372;2023-04-30T10:45:51;94537.88;;;16.68;54.55
6136;BME280;24008;42.664;23.372;2023-04-30T10:48:21;94532.38;;;16.05;59.49
6136;BME280;24008;42.664;23.372;2023-04-30T10:50:51;94533.44;;;15.44;62.38
6136;BME280;24008;42.664;23.372;2023-04-30T10:53:19;94393.78;;;14.29;65.83
6136;BME280;24008;42.664;23.372;2023-04-30T10:55:52;94189.91;;;13.54;71.15
6136;BME280;24008;42.664;23.372;2023-04-30T10:58:25;94443.16;;;15.75;66.72
6136;BME280;24008;42.664;23.372;2023-04-30T11:01:00;94373.94;;;16.50;64.75
6136;BME280;24008;42.664;23.372;2023-04-30T11:03:28;94518.16;;;18.14;61.21
6136;BME280;24008;42.664;23.372;2023-04-30T11:05:55;94518.41;;;18.74;59.58
6136;BME280;24008;42.664;23.372;2023-04-30T11:08:32;94221.88;;;17.11;57.44
6136;BME280;24008;42.664;23.372;2023-04-30T11:10:59;94459.97;;;18.51;52.90
6136;BME280;24008;42.664;23.372;2023-04-30T11:13:37;94475.19;;;18.74;53.11
6136;BME280;24008;42.664;23.372;2023-04-30T11:16:05;94502.53;;;19.16;50.67
6136;BME280;24008;42.664;23.372;2023-04-30T11:18:32;94478.44;;;19.49;49.85
6136;BME280;24008;42.664;23.372;2023-04-30T11:21:02;94501.09;;;19.86;49.94
6136;BME280;24008;42.664;23.372;2023-04-30T11:23:32;94235.03;;;18.23;48.03
6136;BME280;24008;42.664;23.372;2023-04-30T11:25:59;94432.75;;;19.54;45.67
6136;BME280;24008;42.664;23.372;2023-04-30T11:28:31;94417.84;;;19.03;43.96
6136;BME280;24008;42.664;23.372;2023-04-30T11:30:59;94503.53;;;19.28;44.55
6136;BME280;24008;42.664;23.372;2023-04-30T11:33:27;94494.16;;;19.21;46.49
6136;BME280;24008;42.664;23.372;2023-04-30T11:35:55;94494.75;;;19.16;47.42
6136;BME280;24008;42.664;23.372;2023-04-30T11:38:26;94500.31;;;18.93;45.73
6136;BME280;24008;42.664;23.372;2023-04-30T11:40:53;94489.84;;;18.47;46.76
6136;BME280;24008;42.664;23.372;2023-04-30T11:43:21;94491.41;;;18.35;47.43
6136;BME280;24008;42.664;23.372;2023-04-30T11:46:03;94393.31;;;17.45;49.62
6136;BME280;24008;42.664;23.372;2023-04-30T11:48:31;94502.97;;;18.52;49.02
6136;BME280;24008;42.664;23.372;2023-04-30T11:51:02;94464.63;;;18.69;48.86
6136;BME280;24008;42.664;23.372;2023-04-30T11:53:29;94495.53;;;19.10;49.62
6136;BME280;24008;42.664;23.372;2023-04-30T11:55:55;94496.97;;;19.19;49.04
6136;BME280;24008;42.664;23.372;2023-04-30T11:58:22;94487.78;;;19.23;49.65
6136;BME280;24008;42.664;23.372;2023-04-30T12:00:49;94490.38;;;19.30;50.69
6136;BME280;24008;42.664;23.372;2023-04-30T12:03:19;94462.88;;;19.29;49.68
6136;BME280;24008;42.664;23.372;2023-04-30T12:05:45;94426.00;;;18.94;48.15
6136;BME280;24008;42.664;23.372;2023-04-30T12:08:13;94489.56;;;19.23;48.82
6136;BME280;24008;42.664;23.372;2023-04-30T12:10:39;94489.56;;;19.03;50.35
6136;BME280;24008;42.664;23.372;2023-04-30T12:13:06;94411.25;;;18.00;49.63
6136;BME280;24008;42.664;23.372;2023-04-30T12:15:33;94494.38;;;18.32;50.98
6136;BME280;24008;42.664;23.372;2023-04-30T12:18:10;94490.00;;;17.91;51.52
6136;BME280;24008;42.664;23.372;2023-04-30T12:20:39;94181.53;;;15.36;54.25
6136;BME280;24008;42.664;23.372;2023-04-30T12:23:07;94248.19;;;15.46;55.15
6136;BME280;24008;42.664;23.372;2023-04-30T12:25:39;93731.59;;;11.67;56.58
6136;BME280;24008;42.664;23.372;2023-04-30T12:28:06;94376.59;;;15.49;57.76
6136;BME280;24008;42.664;23.372;2023-04-30T12:30:33;94507.09;;;16.15;59.12
6136;BME280;24008;42.664;23.372;2023-04-30T12:33:00;94531.13;;;16.16;61.08
6136;BME280;24008;42.664;23.372;2023-04-30T12:35:29;94522.78;;;15.47;65.06
6136;BME280;24008;42.664;23.372;2023-04-30T12:38:03;94524.63;;;14.55;66.46
6136;BME280;24008;42.664;23.372;2023-04-30T12:40:30;94495.84;;;13.82;70.42
6136;BME280;24008;42.664;23.372;2023-04-30T12:43:02;94530.72;;;13.68;72.73
6136;BME280;24008;42.664;23.372;2023-04-30T12:45:42;94461.34;;;12.96;74.43
6136;BME280;24008;42.664;23.372;2023-04-30T12:48:09;94139.84;;;11.06;76.32
6136;BME280;24008;42.664;23.372;2023-04-30T12:50:36;94513.63;;;13.36;76.93
6136;BME280;24008;42.664;23.372;2023-04-30T12:53:05;94505.91;;;13.52;76.87
6136;BME280;24008;42.664;23.372;2023-04-30T12:55:33;94418.69;;;13.28;74.82
6136;BME280;24008;42.664;23.372;2023-04-30T12:58:05;94544.91;;;14.11;75.09
6136;BME280;24008;42.664;23.372;2023-04-30T13:00:49;94516.16;;;14.38;74.06
6136;BME280;24008;42.664;23.372;2023-04-30T13:03:17;94517.94;;;14.69;71.30
6136;BME280;24008;42.664;23.372;2023-04-30T13:05:46;94512.09;;;14.98;69.33
6136;BME280;24008;42.664;23.372;2023-04-30T13:08:16;94425.03;;;14.64;68.21
6136;BME280;24008;42.664;23.372;2023-04-30T13:10:43;94371.19;;;14.48;66.43
6136;BME280;24008;42.664;23.372;2023-04-30T13:13:11;94480.69;;;15.40;67.21